LKMTLKKB

Guest
Details From LKMT - Ostrava Mosnov
To LKKB - Kbely
Flight Number -
Tags generated
Created
Modified
Stats Distance 140 nm / 260 km
Max Altitude 8,200 ft / 2,499 m
Waypoints 3
Social Downloads 0
Likes 0
Share VATSIM

Download

Looking for another format? Having issues loading an existing format? Contact us
Advertisement - Login to hide

Notes

Basic altitude profile: - Ascent Rate: 2500ft/min - Ascent Speed: 250kts - Cruise Altitude: 35000ft - Cruise Speed: 420kts - Descent Rate: 1500ft/min - Descent Speed: 250kts Options: - Use NATs: yes - Use PACOTS: yes - Use low airways: yes - Use high airways: yes

Route

LKMT PEMUR LKKB

ID Type Via Altitude Latitude Longitude Leg Dist Tot Dist Heading (true) Name
O LKMT APT - 0 ft / 0 m 49.69622˚ 18.11085˚ - 0 nm - Ostrava Mosnov
PEMUR FIX - 8,200 ft / 2,499 m 50.05467˚ 15.53824˚ 101 nm 101 nm 283° / 281° -
O LKKB APT - 0 ft / 0 m 50.12075˚ 14.54270˚ 38 nm 140 nm 276° / 276° Kbely

Altitude Profile

Advertisement - Login to hide

LKMT

Details ICAO LKMT (OSR)
Name Ostrava Mosnov
Region Czech Republic
Timezone Europe/Prague (UTC+2.0)
Stats Elevation 843 ft / 257 m (AMSL)
Location 49.696217° 18.110855°
Runways 1
Magnetic Variation 4.818° E

METAR

LKMT 251900Z 04004KT CAVOK 18/11 Q1019 NOSIG

Decode

TAF

TAF LKMT 251700Z 2518/2700 VRB02KT CAVOK TEMPO 2601/2603 3000 BR NSC TEMPO 2609/2615 03010KT 9999 SCT050TCU

Decode

Departure Runways

ID Width Length Bearing (true) Bearing (mag) Surface Threshold Offset Overrun Length
04 207 ft / 63 m 11,532 ft / 3,515 m 46.29° 41.47° Concrete 0 ft / 0 m 52 ft / 16 m
22 207 ft / 63 m 11,532 ft / 3,515 m 226.31° 221.49° Concrete 0 ft / 0 m 49 ft / 15 m

LKKB

Details ICAO LKKB
Name Kbely
Region Czech Republic
Timezone Europe/Prague (UTC+2.0)
Stats Elevation 939 ft / 286 m (AMSL)
Location 50.120746° 14.542697°
Runways 2
Magnetic Variation 3.990° E

METAR

LKKB 251900Z 06003KT CAVOK 22/08 Q1019 NOSIG

Decode

TAF

TAF LKKB 251700Z 2518/2618 VRB02KT CAVOK PROB30 TEMPO 2518/2520 SHRA SCT045TCU BECMG 2608/2610 10006KT TEMPO 2609/2615 SCT035

Decode

Destination Runways

ID Width Length Bearing (true) Bearing (mag) Surface Threshold Offset Overrun Length
06L 164 ft / 50 m 6,552 ft / 1,997 m 62.36° 58.37° Asphalt 0 ft / 0 m 0 ft / 0 m
06R 157 ft / 48 m 4,875 ft / 1,486 m 62.30° 58.31° Grass 0 ft / 0 m 0 ft / 0 m
24L 157 ft / 48 m 4,875 ft / 1,486 m 242.31° 238.32° Grass 0 ft / 0 m 0 ft / 0 m
24R 164 ft / 50 m 6,552 ft / 1,997 m 242.38° 238.39° Asphalt 0 ft / 0 m 0 ft / 0 m

Approach Navaids

Runway Type Ident Frequency Range Bearing (true) Bearing (mag) Slope Elevation
24R Localiser KD 108.35 MHz 18 nm / 33 km 242.31° 238.32° - 916 ft / 279 m (AMSL)
24R Glidescope KD 108.35 MHz 10 nm / 19 km 242.37° 238.38° 3.00° 916 ft / 279 m (AMSL)
24R DME KD 108.35 MHz 18 nm / 33 km - - - 976 ft / 297 m (AMSL)